sensor_id;sensor_type;location;lat;lon;timestamp;pressure;altitude;pressure_sealevel;temperature;humidity
59767;BME280;46248;58.364;25.582;2023-07-28T00:02:43;99744.03;;;13.24;97.87
59767;BME280;46248;58.364;25.582;2023-07-28T00:06:05;99769.19;;;13.28;98.08
59767;BME280;46248;58.364;25.582;2023-07-28T00:09:26;99761.59;;;13.24;98.10
59767;BME280;46248;58.364;25.582;2023-07-28T00:12:48;99744.72;;;13.15;98.23
59767;BME280;46248;58.364;25.582;2023-07-28T00:16:10;99740.19;;;13.17;97.62
59767;BME280;46248;58.364;25.582;2023-07-28T00:19:33;99731.69;;;13.14;97.71
59767;BME280;46248;58.364;25.582;2023-07-28T00:22:55;99734.41;;;13.12;97.76
59767;BME280;46248;58.364;25.582;2023-07-28T00:26:17;99740.88;;;13.08;97.54
59767;BME280;46248;58.364;25.582;2023-07-28T00:29:39;99743.72;;;13.05;97.89
59767;BME280;46248;58.364;25.582;2023-07-28T00:33:00;99740.59;;;13.00;97.61
59767;BME280;46248;58.364;25.582;2023-07-28T00:36:23;99729.78;;;12.92;98.08
59767;BME280;46248;58.364;25.582;2023-07-28T00:39:46;99734.94;;;12.93;97.53
59767;BME280;46248;58.364;25.582;2023-07-28T00:43:07;99730.75;;;12.91;98.28
59767;BME280;46248;58.364;25.582;2023-07-28T00:46:29;99733.59;;;12.88;98.44
59767;BME280;46248;58.364;25.582;2023-07-28T00:49:51;99734.66;;;12.85;97.55
59767;BME280;46248;58.364;25.582;2023-07-28T00:53:14;99734.78;;;12.83;97.64
59767;BME280;46248;58.364;25.582;2023-07-28T00:56:36;99729.75;;;12.80;98.37
59767;BME280;46248;58.364;25.582;2023-07-28T00:59:58;99724.81;;;12.76;98.49
59767;BME280;46248;58.364;25.582;2023-07-28T01:03:20;99720.84;;;12.70;98.13
59767;BME280;46248;58.364;25.582;2023-07-28T01:06:47;99724.75;;;12.65;98.66
59767;BME280;46248;58.364;25.582;2023-07-28T01:10:18;99723.00;;;12.65;97.12
59767;BME280;46248;58.364;25.582;2023-07-28T01:13:42;99724.16;;;12.61;98.68
59767;BME280;46248;58.364;25.582;2023-07-28T01:17:04;99721.97;;;12.55;98.74
59767;BME280;46248;58.364;25.582;2023-07-28T01:20:29;99720.63;;;12.49;99.14
59767;BME280;46248;58.364;25.582;2023-07-28T01:23:59;99736.72;;;12.45;98.35
59767;BME280;46248;58.364;25.582;2023-07-28T01:27:24;99727.50;;;12.39;97.81
59767;BME280;46248;58.364;25.582;2023-07-28T01:30:46;99725.91;;;12.36;97.79
59767;BME280;46248;58.364;25.582;2023-07-28T01:34:08;99717.44;;;12.33;97.82
59767;BME280;46248;58.364;25.582;2023-07-28T01:37:29;99722.91;;;12.30;98.80
59767;BME280;46248;58.364;25.582;2023-07-28T01:40:51;99710.31;;;12.22;98.88
59767;BME280;46248;58.364;25.582;2023-07-28T01:44:14;99719.13;;;12.21;99.27
59767;BME280;46248;58.364;25.582;2023-07-28T01:47:36;99715.72;;;12.08;99.62
59767;BME280;46248;58.364;25.582;2023-07-28T01:50:58;99716.00;;;12.03;100.00
59767;BME280;46248;58.364;25.582;2023-07-28T01:54:20;99716.34;;;11.99;100.00
59767;BME280;46248;58.364;25.582;2023-07-28T01:57:50;99709.63;;;11.95;100.00
59767;BME280;46248;58.364;25.582;2023-07-28T02:01:13;99705.22;;;11.95;100.00
59767;BME280;46248;58.364;25.582;2023-07-28T02:04:35;99702.72;;;11.94;100.00
59767;BME280;46248;58.364;25.582;2023-07-28T02:07:57;99701.88;;;11.93;100.00
59767;BME280;46248;58.364;25.582;2023-07-28T02:11:19;99703.66;;;11.93;100.00
59767;BME280;46248;58.364;25.582;2023-07-28T02:14:41;99702.78;;;11.92;100.00
59767;BME280;46248;58.364;25.582;2023-07-28T02:18:03;99706.72;;;11.86;100.00
59767;BME280;46248;58.364;25.582;2023-07-28T02:21:26;99706.03;;;11.83;100.00
59767;BME280;46248;58.364;25.582;2023-07-28T02:24:50;99710.44;;;11.82;100.00
59767;BME280;46248;58.364;25.582;2023-07-28T02:28:12;99706.97;;;11.82;100.00
59767;BME280;46248;58.364;25.582;2023-07-28T02:31:34;99706.72;;;11.86;100.00
59767;BME280;46248;58.364;25.582;2023-07-28T02:34:57;99707.56;;;11.87;100.00
59767;BME280;46248;58.364;25.582;2023-07-28T02:38:19;99711.97;;;11.86;100.00
59767;BME280;46248;58.364;25.582;2023-07-28T02:41:40;99706.81;;;11.85;100.00
59767;BME280;46248;58.364;25.582;2023-07-28T02:45:02;99710.44;;;11.82;100.00
59767;BME280;46248;58.364;25.582;2023-07-28T02:48:24;99718.44;;;11.81;100.00
59767;BME280;46248;58.364;25.582;2023-07-28T02:51:47;99730.50;;;11.83;100.00
59767;BME280;46248;58.364;25.582;2023-07-28T02:55:08;99730.31;;;11.86;100.00
59767;BME280;46248;58.364;25.582;2023-07-28T02:58:30;99727.78;;;11.85;100.00
59767;BME280;46248;58.364;25.582;2023-07-28T03:01:51;99726.19;;;11.82;100.00
59767;BME280;46248;58.364;25.582;2023-07-28T03:05:14;99724.59;;;11.80;100.00
59767;BME280;46248;58.364;25.582;2023-07-28T03:08:37;99714.44;;;11.75;100.00
59767;BME280;46248;58.364;25.582;2023-07-28T03:11:58;99729.84;;;11.80;100.00
59767;BME280;46248;58.364;25.582;2023-07-28T03:15:20;99729.75;;;11.81;100.00
59767;BME280;46248;58.364;25.582;2023-07-28T03:18:42;99724.50;;;11.81;100.00
59767;BME280;46248;58.364;25.582;2023-07-28T03:22:04;99716.34;;;11.86;100.00
59767;BME280;46248;58.364;25.582;2023-07-28T03:25:27;99720.75;;;11.85;100.00
59767;BME280;46248;58.364;25.582;2023-07-28T03:28:50;99722.53;;;11.85;100.00
59767;BME280;46248;58.364;25.582;2023-07-28T03:32:11;99729.53;;;11.84;100.00
59767;BME280;46248;58.364;25.582;2023-07-28T03:35:33;99724.38;;;11.83;100.00
59767;BME280;46248;58.364;25.582;2023-07-28T03:38:55;99720.22;;;11.80;100.00
59767;BME280;46248;58.364;25.582;2023-07-28T03:42:18;99710.44;;;11.82;100.00
59767;BME280;46248;58.364;25.582;2023-07-28T03:45:39;99689.69;;;11.79;100.00
59767;BME280;46248;58.364;25.582;2023-07-28T03:49:01;99701.66;;;11.83;100.00
59767;BME280;46248;58.364;25.582;2023-07-28T03:52:23;99699.03;;;11.83;100.00
59767;BME280;46248;58.364;25.582;2023-07-28T03:55:44;99693.88;;;11.82;100.00
59767;BME280;46248;58.364;25.582;2023-07-28T03:59:08;99686.22;;;11.79;100.00
59767;BME280;46248;58.364;25.582;2023-07-28T04:02:29;99685.25;;;11.80;100.00
59767;BME280;46248;58.364;25.582;2023-07-28T04:05:51;99685.25;;;11.80;100.00
59767;BME280;46248;58.364;25.582;2023-07-28T04:09:14;99680.00;;;11.80;100.00
59767;BME280;46248;58.364;25.582;2023-07-28T04:12:36;99674.69;;;11.81;100.00
59767;BME280;46248;58.364;25.582;2023-07-28T04:15:59;99670.59;;;11.77;100.00
59767;BME280;46248;58.364;25.582;2023-07-28T04:19:21;99672.78;;;11.83;100.00
59767;BME280;46248;58.364;25.582;2023-07-28T04:22:42;99676.69;;;11.90;100.00
59767;BME280;46248;58.364;25.582;2023-07-28T04:26:04;99671.22;;;11.94;100.00
59767;BME280;46248;58.364;25.582;2023-07-28T04:29:25;99666.50;;;11.99;100.00
59767;BME280;46248;58.364;25.582;2023-07-28T04:32:48;99666.78;;;12.07;100.00
59767;BME280;46248;58.364;25.582;2023-07-28T04:36:11;99659.69;;;12.33;100.00
59767;BME280;46248;58.364;25.582;2023-07-28T04:39:32;99648.59;;;12.65;100.00
59767;BME280;46248;58.364;25.582;2023-07-28T04:42:54;99657.00;;;13.05;100.00
59767;BME280;46248;58.364;25.582;2023-07-28T04:46:15;99659.69;;;13.27;100.00
59767;BME280;46248;58.364;25.582;2023-07-28T04:49:38;99657.81;;;13.41;100.00
59767;BME280;46248;58.364;25.582;2023-07-28T04:53:00;99655.19;;;13.63;100.00
59767;BME280;46248;58.364;25.582;2023-07-28T04:56:22;99659.63;;;13.96;100.00
59767;BME280;46248;58.364;25.582;2023-07-28T04:59:44;99655.63;;;14.25;99.32
59767;BME280;46248;58.364;25.582;2023-07-28T05:03:07;99648.03;;;14.54;98.52
59767;BME280;46248;58.364;25.582;2023-07-28T05:06:30;99633.41;;;14.82;97.79
59767;BME280;46248;58.364;25.582;2023-07-28T05:09:52;99638.19;;;15.09;96.82
59767;BME280;46248;58.364;25.582;2023-07-28T05:13:13;99636.50;;;15.29;96.37
59767;BME280;46248;58.364;25.582;2023-07-28T05:16:35;99637.13;;;15.42;95.84
59767;BME280;46248;58.364;25.582;2023-07-28T05:19:57;99625.41;;;15.56;95.93
59767;BME280;46248;58.364;25.582;2023-07-28T05:23:20;99633.41;;;15.75;95.19
59767;BME280;46248;58.364;25.582;2023-07-28T05:26:42;99624.31;;;15.89;95.13
59767;BME280;46248;58.364;25.582;2023-07-28T05:30:04;99621.16;;;16.15;93.83
59767;BME280;46248;58.364;25.582;2023-07-28T05:33:26;99622.44;;;16.30;92.40
59767;BME280;46248;58.364;25.582;2023-07-28T05:36:48;99628.59;;;16.50;93.01
59767;BME280;46248;58.364;25.582;2023-07-28T05:40:12;99624.56;;;16.65;92.05
59767;BME280;46248;58.364;25.582;2023-07-28T05:43:34;99630.72;;;16.85;91.10
59767;BME280;46248;58.364;25.582;2023-07-28T05:46:56;99629.28;;;17.01;90.67
59767;BME280;46248;58.364;25.582;2023-07-28T05:50:18;99638.00;;;17.21;89.63
59767;BME280;46248;58.364;25.582;2023-07-28T05:53:40;99634.38;;;17.31;88.01
59767;BME280;46248;58.364;25.582;2023-07-28T05:57:04;99646.75;;;17.40;87.70
59767;BME280;46248;58.364;25.582;2023-07-28T06:00:26;99636.72;;;17.44;87.05
59767;BME280;46248;58.364;25.582;2023-07-28T06:03:48;99637.78;;;17.61;87.57
59767;BME280;46248;58.364;25.582;2023-07-28T06:07:12;99635.34;;;17.77;84.89
59767;BME280;46248;58.364;25.582;2023-07-28T06:10:34;99636.31;;;17.86;84.63
59767;BME280;46248;58.364;25.582;2023-07-28T06:13:57;99637.13;;;18.14;83.40
59767;BME280;46248;58.364;25.582;2023-07-28T06:17:19;99633.50;;;18.33;82.90
59767;BME280;46248;58.364;25.582;2023-07-28T06:20:43;99643.75;;;18.46;83.62
59767;BME280;46248;58.364;25.582;2023-07-28T06:24:05;99644.44;;;18.66;81.95
59767;BME280;46248;58.364;25.582;2023-07-28T06:27:27;99655.22;;;18.82;81.71
59767;BME280;46248;58.364;25.582;2023-07-28T06:30:54;99649.88;;;19.00;77.79
59767;BME280;46248;58.364;25.582;2023-07-28T06:34:17;99654.44;;;19.08;78.24
59767;BME280;46248;58.364;25.582;2023-07-28T06:37:38;99652.50;;;19.18;78.53
59767;BME280;46248;58.364;25.582;2023-07-28T06:41:00;99646.78;;;19.05;76.26
59767;BME280;46248;58.364;25.582;2023-07-28T06:44:22;99646.41;;;18.99;77.83
59767;BME280;46248;58.364;25.582;2023-07-28T06:47:46;99640.41;;;19.15;75.79
59767;BME280;46248;58.364;25.582;2023-07-28T06:51:08;99641.88;;;19.18;71.59
59767;BME280;46248;58.364;25.582;2023-07-28T06:54:30;99640.28;;;19.25;73.44
59767;BME280;46248;58.364;25.582;2023-07-28T06:57:52;99636.63;;;19.26;70.71
59767;BME280;46248;58.364;25.582;2023-07-28T07:01:14;99638.59;;;19.24;72.12
59767;BME280;46248;58.364;25.582;2023-07-28T07:04:37;99627.84;;;19.26;70.11
59767;BME280;46248;58.364;25.582;2023-07-28T07:07:59;99641.91;;;19.44;71.85
59767;BME280;46248;58.364;25.582;2023-07-28T07:11:22;99636.97;;;19.49;70.22
59767;BME280;46248;58.364;25.582;2023-07-28T07:14:44;99642.22;;;19.41;70.85
59767;BME280;46248;58.364;25.582;2023-07-28T07:18:05;99635.63;;;19.27;72.19
59767;BME280;46248;58.364;25.582;2023-07-28T07:21:29;99631.53;;;19.33;70.87
59767;BME280;46248;58.364;25.582;2023-07-28T07:24:51;99625.66;;;19.47;72.81
59767;BME280;46248;58.364;25.582;2023-07-28T07:28:12;99626.47;;;19.48;72.55
59767;BME280;46248;58.364;25.582;2023-07-28T07:31:34;99628.09;;;19.40;70.89
59767;BME280;46248;58.364;25.582;2023-07-28T07:34:56;99624.88;;;19.55;71.19
59767;BME280;46248;58.364;25.582;2023-07-28T07:38:22;99616.19;;;19.71;68.71
59767;BME280;46248;58.364;25.582;2023-07-28T07:41:43;99627.50;;;19.81;68.62
59767;BME280;46248;58.364;25.582;2023-07-28T07:45:06;99618.97;;;20.03;68.60
59767;BME280;46248;58.364;25.582;2023-07-28T07:48:28;99617.56;;;20.50;69.12
59767;BME280;46248;58.364;25.582;2023-07-28T07:51:50;99619.75;;;20.87;68.97
59767;BME280;46248;58.364;25.582;2023-07-28T07:55:13;99621.75;;;21.01;66.63
59767;BME280;46248;58.364;25.582;2023-07-28T07:58:35;99618.25;;;20.85;63.97
59767;BME280;46248;58.364;25.582;2023-07-28T08:01:57;99620.75;;;20.86;62.89
59767;BME280;46248;58.364;25.582;2023-07-28T08:05:20;99615.59;;;20.85;62.38
59767;BME280;46248;58.364;25.582;2023-07-28T08:08:42;99616.25;;;20.78;63.12
59767;BME280;46248;58.364;25.582;2023-07-28T08:12:06;99612.63;;;20.79;64.66
59767;BME280;46248;58.364;25.582;2023-07-28T08:15:27;99608.97;;;20.64;60.95
59767;BME280;46248;58.364;25.582;2023-07-28T08:18:49;99610.22;;;20.35;63.51
59767;BME280;46248;58.364;25.582;2023-07-28T08:22:11;99617.31;;;20.10;64.28
59767;BME280;46248;58.364;25.582;2023-07-28T08:25:33;99608.34;;;20.11;65.60
59767;BME280;46248;58.364;25.582;2023-07-28T08:28:56;99598.41;;;20.30;65.03
59767;BME280;46248;58.364;25.582;2023-07-28T08:32:18;99596.13;;;20.43;63.90
59767;BME280;46248;58.364;25.582;2023-07-28T08:35:40;99597.81;;;20.52;62.01
59767;BME280;46248;58.364;25.582;2023-07-28T08:39:02;99602.59;;;20.41;61.81
59767;BME280;46248;58.364;25.582;2023-07-28T08:42:24;99597.09;;;20.50;62.25
59767;BME280;46248;58.364;25.582;2023-07-28T08:45:47;99594.66;;;20.65;60.81
59767;BME280;46248;58.364;25.582;2023-07-28T08:49:08;99591.50;;;20.78;60.61
59767;BME280;46248;58.364;25.582;2023-07-28T08:52:31;99583.84;;;20.83;60.89
59767;BME280;46248;58.364;25.582;2023-07-28T08:55:53;99589.66;;;20.78;61.26
59767;BME280;46248;58.364;25.582;2023-07-28T08:59:20;99581.00;;;20.60;60.70
59767;BME280;46248;58.364;25.582;2023-07-28T09:02:44;99584.13;;;20.39;61.81
59767;BME280;46248;58.364;25.582;2023-07-28T09:06:06;99583.44;;;20.21;62.03
59767;BME280;46248;58.364;25.582;2023-07-28T09:09:31;99568.66;;;20.18;62.58
59767;BME280;46248;58.364;25.582;2023-07-28T09:12:53;99575.81;;;20.42;63.90
59767;BME280;46248;58.364;25.582;2023-07-28T09:16:19;99565.91;;;20.69;61.46
59767;BME280;46248;58.364;25.582;2023-07-28T09:19:54;99560.06;;;20.81;60.51
59767;BME280;46248;58.364;25.582;2023-07-28T09:23:16;99568.03;;;20.90;60.98
59767;BME280;46248;58.364;25.582;2023-07-28T09:26:38;99571.19;;;21.01;58.71
59767;BME280;46248;58.364;25.582;2023-07-28T09:30:01;99613.13;;;20.58;59.93
59767;BME280;46248;58.364;25.582;2023-07-28T09:33:29;99636.69;;;19.95;66.22
59767;BME280;46248;58.364;25.582;2023-07-28T09:36:54;99631.03;;;19.29;72.25
59767;BME280;46248;58.364;25.582;2023-07-28T09:40:17;99619.53;;;18.76;75.05
59767;BME280;46248;58.364;25.582;2023-07-28T09:43:40;99622.16;;;18.59;75.72
59767;BME280;46248;58.364;25.582;2023-07-28T09:47:03;99617.31;;;18.54;77.74
59767;BME280;46248;58.364;25.582;2023-07-28T09:50:29;99603.91;;;18.56;76.53
59767;BME280;46248;58.364;25.582;2023-07-28T09:53:56;99595.47;;;18.60;74.28
59767;BME280;46248;58.364;25.582;2023-07-28T09:57:20;99594.38;;;18.81;73.92
59767;BME280;46248;58.364;25.582;2023-07-28T10:00:42;99586.94;;;19.10;74.55
59767;BME280;46248;58.364;25.582;2023-07-28T10:04:05;99593.09;;;19.37;75.31
59767;BME280;46248;58.364;25.582;2023-07-28T10:07:27;99586.69;;;19.56;72.08
59767;BME280;46248;58.364;25.582;2023-07-28T10:10:51;99587.44;;;19.66;73.42
59767;BME280;46248;58.364;25.582;2023-07-28T10:14:25;99584.94;;;19.64;73.65
59767;BME280;46248;58.364;25.582;2023-07-28T10:17:50;99586.59;;;19.39;76.82
59767;BME280;46248;58.364;25.582;2023-07-28T10:21:16;99585.00;;;19.20;80.91
59767;BME280;46248;58.364;25.582;2023-07-28T10:24:51;99584.25;;;19.28;79.19
59767;BME280;46248;58.364;25.582;2023-07-28T10:28:28;99579.19;;;19.43;72.95
59767;BME280;46248;58.364;25.582;2023-07-28T10:31:53;99577.78;;;19.31;76.33
59767;BME280;46248;58.364;25.582;2023-07-28T10:35:23;99572.16;;;19.34;75.83
59767;BME280;46248;58.364;25.582;2023-07-28T10:38:45;99562.72;;;19.39;76.67
59767;BME280;46248;58.364;25.582;2023-07-28T10:42:08;99556.66;;;19.55;75.93
59767;BME280;46248;58.364;25.582;2023-07-28T10:45:32;99562.25;;;19.78;76.32
59767;BME280;46248;58.364;25.582;2023-07-28T10:48:54;99554.47;;;19.93;76.02
59767;BME280;46248;58.364;25.582;2023-07-28T10:52:16;99552.69;;;20.18;73.96
59767;BME280;46248;58.364;25.582;2023-07-28T10:55:38;99556.88;;;20.29;72.29
59767;BME280;46248;58.364;25.582;2023-07-28T10:59:01;99554.19;;;20.21;71.11
59767;BME280;46248;58.364;25.582;2023-07-28T11:02:26;99542.69;;;19.96;71.29
59767;BME280;46248;58.364;25.582;2023-07-28T11:05:48;99548.31;;;19.76;70.71
59767;BME280;46248;58.364;25.582;2023-07-28T11:09:11;99547.78;;;19.64;71.30
59767;BME280;46248;58.364;25.582;2023-07-28T11:12:35;99556.13;;;19.86;71.17
59767;BME280;46248;58.364;25.582;2023-07-28T11:15:57;99553.38;;;20.20;69.41
59767;BME280;46248;58.364;25.582;2023-07-28T11:19:20;99538.25;;;20.45;70.23
59767;BME280;46248;58.364;25.582;2023-07-28T11:22:52;99549.78;;;20.62;69.95
59767;BME280;46248;58.364;25.582;2023-07-28T11:26:14;99570.41;;;20.52;71.82
59767;BME280;46248;58.364;25.582;2023-07-28T11:29:40;99574.44;;;20.05;74.67
59767;BME280;46248;58.364;25.582;2023-07-28T11:33:03;99563.31;;;19.59;77.33
59767;BME280;46248;58.364;25.582;2023-07-28T11:36:27;99551.72;;;19.26;77.07
59767;BME280;46248;58.364;25.582;2023-07-28T11:39:51;99562.00;;;19.29;80.41
59767;BME280;46248;58.364;25.582;2023-07-28T11:43:13;99561.75;;;19.40;81.69
59767;BME280;46248;58.364;25.582;2023-07-28T11:46:36;99571.22;;;19.51;79.86
59767;BME280;46248;58.364;25.582;2023-07-28T11:49:59;99581.38;;;19.56;78.73
59767;BME280;46248;58.364;25.582;2023-07-28T11:53:25;99585.56;;;19.58;79.19
59767;BME280;46248;58.364;25.582;2023-07-28T11:56:47;99579.16;;;19.69;79.99
59767;BME280;46248;58.364;25.582;2023-07-28T12:00:09;99555.31;;;19.85;80.41
59767;BME280;46248;58.364;25.582;2023-07-28T12:03:32;99547.88;;;20.13;78.55
59767;BME280;46248;58.364;25.582;2023-07-28T12:07:01;99536.63;;;20.44;76.95
59767;BME280;46248;58.364;25.582;2023-07-28T12:10:27;99524.69;;;20.56;75.83
59767;BME280;46248;58.364;25.582;2023-07-28T12:13:52;99551.59;;;20.62;75.54
59767;BME280;46248;58.364;25.582;2023-07-28T12:17:18;99552.78;;;20.59;73.95
59767;BME280;46248;58.364;25.582;2023-07-28T12:20:44;99551.06;;;20.42;73.00
59767;BME280;46248;58.364;25.582;2023-07-28T12:24:08;99556.22;;;20.35;71.66
59767;BME280;46248;58.364;25.582;2023-07-28T12:27:31;99543.75;;;20.44;67.50
59767;BME280;46248;58.364;25.582;2023-07-28T12:30:53;99550.91;;;20.43;66.07
59767;BME280;46248;58.364;25.582;2023-07-28T12:34:17;99551.59;;;20.62;65.63
59767;BME280;46248;58.364;25.582;2023-07-28T12:37:41;99553.25;;;20.71;62.09
59767;BME280;46248;58.364;25.582;2023-07-28T12:41:06;99557.09;;;20.76;65.47
59767;BME280;46248;58.364;25.582;2023-07-28T12:44:31;99560.25;;;20.80;63.98
59767;BME280;46248;58.364;25.582;2023-07-28T12:47:56;99554.09;;;20.71;63.09
59767;BME280;46248;58.364;25.582;2023-07-28T12:51:19;99554.09;;;20.55;62.07
59767;BME280;46248;58.364;25.582;2023-07-28T12:54:44;99557.22;;;20.50;61.31
59767;BME280;46248;58.364;25.582;2023-07-28T12:58:07;99541.09;;;20.35;61.11
59767;BME280;46248;58.364;25.582;2023-07-28T13:01:50;99549.41;;;20.24;63.71
59767;BME280;46248;58.364;25.582;2023-07-28T13:05:13;99552.56;;;20.36;65.23
59767;BME280;46248;58.364;25.582;2023-07-28T13:08:37;99556.06;;;20.45;63.38
59767;BME280;46248;58.364;25.582;2023-07-28T13:12:03;99561.38;;;20.45;64.09
59767;BME280;46248;58.364;25.582;2023-07-28T13:15:28;99546.44;;;20.60;63.08
59767;BME280;46248;58.364;25.582;2023-07-28T13:18:52;99551.63;;;20.70;61.87
59767;BME280;46248;58.364;25.582;2023-07-28T13:22:14;99551.78;;;20.52;61.90
59767;BME280;46248;58.364;25.582;2023-07-28T13:25:36;99544.25;;;20.31;61.23
59767;BME280;46248;58.364;25.582;2023-07-28T13:28:57;99562.38;;;20.35;61.65
59767;BME280;46248;58.364;25.582;2023-07-28T13:32:23;99561.56;;;20.43;61.71
59767;BME280;46248;58.364;25.582;2023-07-28T13:35:48;99554.75;;;20.57;62.12
59767;BME280;46248;58.364;25.582;2023-07-28T13:39:09;99555.78;;;20.64;61.41
59767;BME280;46248;58.364;25.582;2023-07-28T13:42:31;99556.59;;;20.65;61.30
59767;BME280;46248;58.364;25.582;2023-07-28T13:45:53;99552.59;;;20.69;58.57
59767;BME280;46248;58.364;25.582;2023-07-28T13:49:15;99542.28;;;20.66;60.15
59767;BME280;46248;58.364;25.582;2023-07-28T13:52:42;99556.06;;;20.69;56.93
59767;BME280;46248;58.364;25.582;2023-07-28T13:56:10;99554.91;;;20.72;59.36
59767;BME280;46248;58.364;25.582;2023-07-28T13:59:35;99549.44;;;20.73;58.89
59767;BME280;46248;58.364;25.582;2023-07-28T14:02:56;99549.94;;;20.77;59.09
59767;BME280;46248;58.364;25.582;2023-07-28T14:06:19;99553.09;;;20.89;59.50
59767;BME280;46248;58.364;25.582;2023-07-28T14:09:42;99545.91;;;20.97;57.17
59767;BME280;46248;58.364;25.582;2023-07-28T14:13:03;99554.53;;;20.99;56.65
59767;BME280;46248;58.364;25.582;2023-07-28T14:16:25;99540.41;;;20.91;56.37
59767;BME280;46248;58.364;25.582;2023-07-28T14:19:47;99541.28;;;20.91;55.58
59767;BME280;46248;58.364;25.582;2023-07-28T14:23:23;99539.25;;;20.93;55.44
59767;BME280;46248;58.364;25.582;2023-07-28T14:26:46;99534.94;;;21.00;54.98
59767;BME280;46248;58.364;25.582;2023-07-28T14:30:08;99528.47;;;20.95;54.17
59767;BME280;46248;58.364;25.582;2023-07-28T14:33:30;99538.63;;;20.91;54.11
59767;BME280;46248;58.364;25.582;2023-07-28T14:36:52;99536.94;;;20.90;54.85
59767;BME280;46248;58.364;25.582;2023-07-28T14:40:13;99539.28;;;20.85;54.88
59767;BME280;46248;58.364;25.582;2023-07-28T14:43:37;99547.75;;;20.89;55.96
59767;BME280;46248;58.364;25.582;2023-07-28T14:46:58;99550.44;;;20.89;55.73
59767;BME280;46248;58.364;25.582;2023-07-28T14:50:21;99547.28;;;20.85;55.78
59767;BME280;46248;58.364;25.582;2023-07-28T14:53:43;99554.91;;;20.80;56.89
59767;BME280;46248;58.364;25.582;2023-07-28T14:57:06;99557.25;;;20.75;56.47
59767;BME280;46248;58.364;25.582;2023-07-28T15:00:55;99555.25;;;20.69;57.23
59767;BME280;46248;58.364;25.582;2023-07-28T15:04:17;99557.91;;;20.69;56.54
59767;BME280;46248;58.364;25.582;2023-07-28T15:07:38;99552.09;;;20.65;56.38
59767;BME280;46248;58.364;25.582;2023-07-28T15:11:00;99556.75;;;20.63;57.01
59767;BME280;46248;58.364;25.582;2023-07-28T15:14:22;99559.25;;;20.56;56.85
59767;BME280;46248;58.364;25.582;2023-07-28T15:17:45;99568.03;;;20.49;57.72
59767;BME280;46248;58.364;25.582;2023-07-28T15:21:07;99562.72;;;20.49;57.80
59767;BME280;46248;58.364;25.582;2023-07-28T15:24:29;99568.19;;;20.47;58.56
59767;BME280;46248;58.364;25.582;2023-07-28T15:27:51;99572.84;;;20.45;58.26
59767;BME280;46248;58.364;25.582;2023-07-28T15:31:13;99565.03;;;20.44;58.52
59767;BME280;46248;58.364;25.582;2023-07-28T15:34:36;99568.53;;;20.44;59.41
59767;BME280;46248;58.364;25.582;2023-07-28T15:37:58;99580.50;;;20.40;59.77
59767;BME280;46248;58.364;25.582;2023-07-28T15:41:19;99560.19;;;20.39;58.87
59767;BME280;46248;58.364;25.582;2023-07-28T15:44:41;99570.19;;;20.37;59.50
59767;BME280;46248;58.364;25.582;2023-07-28T15:48:02;99573.50;;;20.39;59.29
59767;BME280;46248;58.364;25.582;2023-07-28T15:51:26;99568.19;;;20.39;58.65
59767;BME280;46248;58.364;25.582;2023-07-28T15:54:48;99571.69;;;20.40;60.13
59767;BME280;46248;58.364;25.582;2023-07-28T15:58:10;99569.50;;;20.51;60.39
59767;BME280;46248;58.364;25.582;2023-07-28T16:01:31;99571.56;;;20.57;58.54
59767;BME280;46248;58.364;25.582;2023-07-28T16:04:54;99562.91;;;20.72;59.30
59767;BME280;46248;58.364;25.582;2023-07-28T16:08:17;99565.31;;;21.22;59.36
59767;BME280;46248;58.364;25.582;2023-07-28T16:11:40;99563.66;;;21.69;58.85
59767;BME280;46248;58.364;25.582;2023-07-28T16:15:02;99566.41;;;22.23;58.89
59767;BME280;46248;58.364;25.582;2023-07-28T16:18:24;99562.63;;;22.63;57.18
59767;BME280;46248;58.364;25.582;2023-07-28T16:21:46;99566.47;;;22.99;57.10
59767;BME280;46248;58.364;25.582;2023-07-28T16:25:10;99559.31;;;23.14;53.94
59767;BME280;46248;58.364;25.582;2023-07-28T16:28:32;99558.50;;;23.28;54.43
59767;BME280;46248;58.364;25.582;2023-07-28T16:31:54;99555.81;;;23.28;55.08
59767;BME280;46248;58.364;25.582;2023-07-28T16:35:17;99558.81;;;22.96;55.69
59767;BME280;46248;58.364;25.582;2023-07-28T16:38:38;99557.88;;;22.89;56.11
59767;BME280;46248;58.364;25.582;2023-07-28T16:42:02;99555.19;;;22.51;55.85
59767;BME280;46248;58.364;25.582;2023-07-28T16:45:26;99564.81;;;22.37;57.29
59767;BME280;46248;58.364;25.582;2023-07-28T16:48:48;99566.34;;;22.54;56.51
59767;BME280;46248;58.364;25.582;2023-07-28T16:52:11;99564.31;;;22.56;56.87
59767;BME280;46248;58.364;25.582;2023-07-28T16:55:32;99558.03;;;22.26;56.13
59767;BME280;46248;58.364;25.582;2023-07-28T16:58:56;99550.88;;;21.95;57.03
59767;BME280;46248;58.364;25.582;2023-07-28T17:02:17;99560.31;;;22.06;57.51
59767;BME280;46248;58.364;25.582;2023-07-28T17:05:39;99568.78;;;22.41;57.25
59767;BME280;46248;58.364;25.582;2023-07-28T17:09:01;99561.03;;;22.69;57.34
59767;BME280;46248;58.364;25.582;2023-07-28T17:12:23;99553.06;;;23.22;56.74
59767;BME280;46248;58.364;25.582;2023-07-28T17:15:46;99564.19;;;23.85;56.23
59767;BME280;46248;58.364;25.582;2023-07-28T17:19:09;99574.19;;;23.97;54.10
59767;BME280;46248;58.364;25.582;2023-07-28T17:22:31;99581.06;;;23.70;54.91
59767;BME280;46248;58.364;25.582;2023-07-28T17:25:54;99569.72;;;23.53;54.84
59767;BME280;46248;58.364;25.582;2023-07-28T17:29:16;99576.16;;;23.29;55.98
59767;BME280;46248;58.364;25.582;2023-07-28T17:32:39;99584.53;;;23.12;55.18
59767;BME280;46248;58.364;25.582;2023-07-28T17:36:02;99592.34;;;22.75;56.13
59767;BME280;46248;58.364;25.582;2023-07-28T17:39:23;99590.94;;;22.41;57.68